Pt. Reyes RCA field Weather observations

Data are for 10 minute period ending at time listed.
 Day   Time   Solar   Ave.   Ave.  Ave.  Vector    Max.   Stn.   Total 
  of    of     Rad.   Air    Rel.  Wind   Wind     Wind   Baro. Precip.
Year   Day            Temp.  Hum.  Speed  Dir.     Gust   Pres.        
2014   (PST)   W/m2    F      %     mph   deg.      mph    mb.    in.  
-----------------------------------------------------------------------
 297   13:30  234.0    64   82.1    12    151.1    16.7   1009.5  0.00  
 297   13:40  236.0    64   82.6    13    151.7    16.0   1009.5  0.00  
 297   13:50  288.0    64   82.1    12    149.9    16.6   1009.5  0.00  
 297   14:00  337.0    65   79.5    13    152.2    16.1   1009.5  0.00  
 297   14:10  244.0    64   80.8    12    153.3    15.5   1009.5  0.00  
 297   14:20  282.0    65   79.0    12    153.8    16.2   1009.5  0.00  
 297   14:30  194.0    64   79.8    13    150.3    17.0   1009.1  0.00  
 297   14:40  115.0    64   82.9    13    146.5    16.4   1009.1  0.00  
 297   14:50  193.0    64   83.1    14    141.4    17.3   1009.1  0.00  
 297   15:00  228.0    64   80.7    13    136.2    16.6   1009.1  0.00  
 297   15:10  333.0    64   80.6    14    134.5    18.5   1009.1  0.00  
 297   15:20  177.0    64   80.7    13    137.0    16.0   1009.1  0.00  
 297   15:30  225.0    64   80.7    13    138.5    17.6   1008.8  0.00  
 297   15:40  286.0    65   79.9    13    138.5    17.5   1008.8  0.00  
 297   15:50  139.0    64   79.0    13    140.4    17.7   1008.5  0.00  
 297   16:00   91.0    64   80.5    13    143.6    17.6   1008.5  0.00  
 297   16:10  102.0    63   81.5    12    144.2    15.2   1008.5  0.00  
 297   16:20   91.0    63   80.9    13    144.2    16.9   1008.1  0.00  
 297   16:30   51.0    63   82.3    14    144.1    21.9   1008.1  0.00  
 297   16:40   81.0    63   82.9    16    142.5    19.8   1007.8  0.00  
 297   16:50   89.0    63   82.7    16    141.9    21.4   1007.8  0.00  
 297   17:00   31.0    62   84.8    16    141.3    22.1   1007.8  0.00  
 297   17:10   10.0    61   86.5    14    142.0    20.2   1007.8  0.00  
 297   17:20    4.0    61   87.0    16    140.4    22.4   1007.8  0.00  
 297   17:30    0.0    61   87.2    15    142.5    21.6   1007.8  0.00  
 297   17:40    0.0    61   87.5    15    142.9    20.9   1008.1  0.00  
 297   17:50    0.0    61   88.0    15    139.6    20.4   1008.1  0.00  
 297   18:00    0.0    61   88.8    15    142.5    20.3   1008.1  0.00  
 297   18:10    0.0    61   89.8    15    138.7    19.4   1008.1  0.00  
 297   18:20    0.0    60   90.5    15    139.5    19.5   1008.1  0.00  
 297   18:30    0.0    60   91.1    15    140.4    19.7   1008.1  0.00  
 297   18:40    0.0    60   91.5    14    138.8    18.0   1008.1  0.00  
 297   18:50    0.0    61   91.5    14    139.6    19.8   1008.1  0.00  
 297   19:00    0.0    61   91.2    15    143.1    24.9   1008.1  0.00  
 297   19:10    0.0    61   90.7    14    145.9    20.3   1008.1  0.00  
 297   19:20    0.0    61   90.2    18    141.8    24.0   1008.1  0.00  
 297   19:30    0.0    61   90.1    18    143.0    24.7   1008.1  0.00  
 297   19:40    0.0    61   90.3    17    148.7    22.4   1008.1  0.00  
 297   19:50    0.0    61   90.3    17    146.8    22.6   1008.1  0.00  
 297   20:00    0.0    61   90.4    17    148.6    22.6   1008.1  0.00  
 297   20:10    0.0    62   90.2    18    145.1    24.5   1008.1  0.00  
 297   20:20    0.0    62   90.1    18    147.9    23.6   1008.5  0.00  
 297   20:30    0.0    61   90.2    20    144.3    25.8   1008.1  0.01  
 297   20:40    0.0    61   90.5    19    146.0    24.9   1008.1  0.00  
 297   20:50    0.0    61   91.0    18    147.3    22.9   1008.5  0.00  
 297   21:00    0.0    61   91.6    18    149.1    25.0   1008.5  0.00  
 297   21:10    0.0    61   91.8    19    146.7    25.7   1008.8  0.00  
 297   21:20    0.0    61   91.8    20    145.0    25.9   1008.8  0.00  
 297   21:30    0.0    61   91.7    18    147.7    25.1   1008.8  0.00  
 297   21:40    0.0    61   91.5    19    143.1    26.5   1008.8  0.00  
 297   21:50    0.0    61   91.3    19    145.3    26.6   1008.8  0.00  
 297   22:00    0.0    61   91.3    20    143.9    26.3   1008.8  0.00  
 297   22:10    0.0    61   91.3    22    141.7    29.7   1008.8  0.00  
 297   22:20    0.0    61   91.4    22    141.2    28.9   1008.5  0.00  
 297   22:30    0.0    61   91.5    22    143.0    29.1   1008.5  0.00  
 297   22:40    0.0    61   91.6    21    140.6    27.4   1008.5  0.00  
 297   22:50    0.0    61   91.9    21    140.3    30.8   1008.5  0.00  
 297   23:00    0.0    61   92.3    22    142.0    30.4   1008.5  0.00  
 297   23:10    0.0    61   92.2    20    140.9    29.1   1008.5  0.00  
 297   23:20    0.0    61   92.2    24    141.6    31.4   1008.1  0.00  
 297   23:30    0.0    61   92.1    21    146.8    30.3   1008.5  0.00  
 297   23:40    0.0    61   92.0    21    148.9    27.8   1008.1  0.00  
 297   23:50    0.0    62   91.4    20    150.1    27.5   1008.1  0.00  
 298    0:00    0.0    62   91.0    20    149.4    27.0   1008.1  0.00  
 298    0:10    0.0    62   90.1    21    150.1    29.1   1008.1  0.00  
 298    0:20    0.0    62   89.7    20    151.2    30.2   1008.1  0.00  
 298    0:30    0.0    62   89.4    22    150.4    31.4   1008.1  0.00  
 298    0:40    0.0    62   88.6    24    152.0    30.2   1008.1  0.00  
 298    0:50    0.0    62   90.2    23    151.3    29.5   1008.1  0.00  
 298    1:00    0.0    61   90.9    24    150.2    32.4   1007.8  0.00  
 298    1:10    0.0    62   90.3    24    148.4    33.2   1007.8  0.00  
 298    1:20    0.0    62   89.2    23    155.6    32.8   1007.8  0.00  
 298    1:30    0.0    62   89.3    22    155.1    29.5   1007.8  0.00  
 298    1:40    0.0    62   89.9    24    156.9    32.2   1007.8  0.00  
 298    1:50    0.0    61   92.2    23    185.7    33.0   1008.5  0.00  
 298    2:00    0.0    60   94.4    17    202.8    23.4   1008.8  0.00  
 298    2:10    0.0    59   95.2    14    208.3    18.3   1008.8  0.00  
 298    2:20    0.0    59   95.7    14    205.2    19.9   1008.8  0.01  
 298    2:30    0.0    59   96.0    12    195.7    17.6   1008.5  0.00  
 298    2:40    0.0    59   95.4    12    194.5    17.2   1008.5  0.00  
 298    2:50    0.0    59   94.8    14    189.0    19.9   1008.5  0.01  
 298    3:00    0.0    59   95.0    14    189.2    19.0   1008.5  0.01  
 298    3:10    0.0    59   94.6    17    188.7    25.4   1008.5  0.00  
 298    3:20    0.0    59   93.9    17    190.0    25.4   1008.5  0.01  
 298    3:30    0.0    59   94.7    16    201.1    21.4   1008.8  0.01  
 298    3:40    0.0    59   94.8    14    178.7    19.9   1008.5  0.00  
 298    3:50    0.0    59   92.2    15    174.1    20.1   1008.5  0.00  
 298    4:00    0.0    59   92.5    13    165.8    18.4   1008.8  0.01  
 298    4:10    0.0    58   93.5    14    156.5    19.3   1008.5  0.02  
 298    4:20    0.0    59   94.3    13    151.9    17.8   1008.8  0.00  
 298    4:30    0.0    59   94.6    14    152.9    18.9   1008.8  0.00  
 298    4:40    0.0    59   94.5    14    153.2    18.5   1008.8  0.00  
 298    4:50    0.0    59   94.3    14    153.1    17.2   1008.8  0.00  
 298    5:00    0.0    59   93.7    14    149.8    18.7   1008.8  0.00  
 298    5:10    0.0    59   93.3    14    149.0    19.2   1008.8  0.00  
 298    5:20    0.0    59   93.4    14    145.9    18.0   1009.1  0.00  
 298    5:30    0.0    59   93.3    12    148.7    15.8   1009.1  0.00  
 298    5:40    0.0    59   93.1    12    149.8    15.3   1009.1  0.00  
 298    5:50    0.0    59   93.1    13    152.5    16.7   1009.5  0.00  
 298    6:00    0.0    59   93.3    12    147.9    15.8   1009.5  0.00  
 298    6:10    0.0    59   94.0    12    151.5    16.5   1009.5  0.00  
 298    6:20    0.0    60   94.0    13    152.5    17.1   1009.5  0.00  
 298    6:30    2.0    60   93.6    12    156.3    15.5   1009.5  0.00  
 298    6:40    3.0    60   93.8    12    158.3    16.7   1009.8  0.00  
 298    6:50    6.0    60   93.7    13    161.3    18.0   1009.8  0.00  
 298    7:00    9.0    60   93.8    13    156.7    17.2   1010.2  0.00  
 298    7:10   12.0    60   93.9    12    152.8    16.0   1010.2  0.00  
 298    7:20   25.0    60   94.2    13    153.0    16.9   1010.5  0.00  
 298    7:30   65.0    61   94.3    14    153.6    17.9   1010.5  0.00  
 298    7:40   82.0    61   94.2    13    154.7    18.6   1010.8  0.00  
 298    7:50   63.0    61   93.9    13    155.5    17.2   1011.2  0.00  
 298    8:00   54.0    62   93.6    14    159.0    19.2   1011.2  0.00  
 298    8:10   89.0    62   93.4    13    156.1    17.8   1011.5  0.00  
 298    8:20  157.0    62   92.7    14    161.8    17.6   1011.9  0.00  
 298    8:30  176.0    62   91.8    15    153.2    20.2   1011.9  0.00  
 298    8:40  299.0    63   90.5    14    155.6    19.4   1012.2  0.00  
 298    8:50  287.0    64   90.0    13    164.9    17.6   1012.2  0.00  
 298    9:00  276.0    63   89.2    14    162.4    18.2   1012.5  0.00  
 298    9:10  368.0    64   87.9    14    158.1    17.2   1012.5  0.00  
 298    9:20  397.0    65   86.1    14    162.7    17.9   1012.5  0.00  
 298    9:30  419.0    65   86.0    14    160.3    17.3   1012.5  0.00  
 298    9:40  450.0    65   84.1    15    163.6    21.9   1012.9  0.00  
 298    9:50  445.0    66   82.4    15    161.4    19.1   1013.2  0.00  
 298   10:00  418.0    66   81.5    15    158.2    21.1   1012.9  0.00  
 298   10:10  504.0    66   80.1    15    164.8    23.5   1012.9  0.00  
 298   10:20  507.0    66   79.6    15    161.5    20.0   1013.2  0.00  
 298   10:30  509.0    67   79.0    14    159.4    19.1   1013.2  0.00  
 298   10:40  456.0    67   78.7    14    164.7    19.7   1013.2  0.00  
 298   10:50  480.0    67   78.9    13    174.1    18.2   1013.5  0.00  
 298   11:00  448.0    66   78.7    14    175.5    21.3   1013.5  0.00  
 298   11:10  510.0    67   77.6    15    181.6    25.1   1013.5  0.00  
 298   11:20  379.0    67   75.1    19    197.2    29.5   1013.9  0.00  
 298   11:30  292.0    66   72.0    16    197.2    22.2   1013.9  0.00  
 298   11:40  470.0    67   72.6    15    200.9    20.7   1013.9  0.00  
 298   11:50  610.0    67   71.4    18    200.6    23.5   1013.9  0.00  
 298   12:00  580.0    68   70.0    17    201.8    22.6   1013.9  0.00  
 298   12:10  589.0    68   69.2    16    206.3    24.0   1013.9  0.00  
 298   12:20  604.0    68   70.2    20    206.6    24.9   1013.9  0.00  
 298   12:30  481.0    68   72.0    19    203.9    26.5   1013.9  0.00  
 298   12:40  414.0    67   73.7    17    209.2    22.9   1013.9  0.00  
 298   12:50  497.0    67   75.3    15    213.9    21.3   1013.9  0.00  
 298   13:00  584.0    68   72.8    16    216.1    22.3   1013.9  0.00  
 298   13:10  448.0    68   72.8    15    217.0    21.0   1013.9  0.00  
 298   13:20  539.0    67   74.1    15    220.7    21.0   1013.9  0.00  

Return to Pt. Reyes graphs page.


Western Regional Climate Center,wrcc@dri.edu